Time;durP1;ratioP1;P1;durP2;ratioP2;P2;SDS_P1;SDS_P2;PMS_P1;PMS_P2;Temp;Humidity;BMP_temperature;BMP_pressure;BME280_temperature;BME280_humidity;BME280_pressure;Samples;Min_cycle;Max_cycle;Signal;HPM_P1;HPM_P2
2024/03/14 00:04:42;;;;;;;2.50;1.95;;;;;;;9.34;100.00;98363.47;15289720;19;20015;-61
2024/03/14 00:10:09;;;;;;;5.43;2.40;;;;;;;9.34;100.00;98363.47;15294007;19;20014;-62
2024/03/14 00:15:37;;;;;;;2.60;2.38;;;;;;;9.29;100.00;98353.16;15286733;19;20358;-61
2024/03/14 00:21:09;;;;;;;3.13;2.47;;;;;;;9.28;100.00;98358.72;15293738;19;20022;-60
2024/03/14 00:26:35;;;;;;;2.45;2.00;;;;;;;9.25;100.00;98357.19;15286606;19;20412;-61
2024/03/14 00:32:04;;;;;;;2.60;2.40;;;;;;;9.22;100.00;98362.84;15294066;19;20033;-61
2024/03/14 00:37:28;;;;;;;4.07;2.45;;;;;;;9.18;100.00;98351.59;15294519;19;20042;-61
2024/03/14 00:42:53;;;;;;;3.10;2.47;;;;;;;9.18;100.00;98350.72;15291999;19;20023;-62
2024/03/14 00:48:21;;;;;;;3.35;2.47;;;;;;;9.16;100.00;98348.19;15293060;19;20523;-59
2024/03/14 00:53:46;;;;;;;3.03;2.60;;;;;;;9.14;100.00;98349.34;15031332;19;5002268;-62
2024/03/14 00:59:12;;;;;;;3.05;2.47;;;;;;;9.14;100.00;98344.81;15287250;19;20553;-60
2024/03/14 01:04:40;;;;;;;4.20;2.40;;;;;;;9.18;100.00;98348.03;15289058;19;20042;-61
2024/03/14 01:10:13;;;;;;;3.45;2.17;;;;;;;9.17;100.00;98344.50;15291113;19;20018;-60
2024/03/14 01:15:38;;;;;;;5.90;2.80;;;;;;;9.16;100.00;98345.50;15318397;19;20026;-61
2024/03/14 01:21:07;;;;;;;4.57;2.85;;;;;;;9.14;100.00;98334.06;15320976;19;20020;-61
2024/03/14 01:26:33;;;;;;;3.70;3.28;;;;;;;9.10;100.00;98335.38;15315333;19;20018;-59
2024/03/14 01:31:57;;;;;;;5.40;3.53;;;;;;;9.09;100.00;98331.84;15315662;19;20032;-60
2024/03/14 01:37:24;;;;;;;3.60;3.30;;;;;;;9.10;100.00;98333.53;15313061;19;20497;-60
2024/03/14 01:42:50;;;;;;;5.82;3.38;;;;;;;9.14;100.00;98334.06;15358545;19;20021;-61
2024/03/14 01:48:15;;;;;;;4.03;3.38;;;;;;;9.14;100.00;98328.69;15327458;19;20402;-61
2024/03/14 01:53:45;;;;;;;4.00;3.58;;;;;;;9.14;100.00;98322.47;15317250;19;20022;-61
2024/03/14 01:59:13;;;;;;;4.22;3.22;;;;;;;9.15;100.00;98327.69;15318754;19;20014;-60
2024/03/14 02:04:47;;;;;;;4.10;3.70;;;;;;;9.15;100.00;98327.69;15311819;19;20019;-61
2024/03/14 02:10:24;;;;;;;3.95;3.60;;;;;;;9.15;100.00;98324.16;15313190;19;20022;-62
2024/03/14 02:15:49;;;;;;;4.10;3.70;;;;;;;9.13;100.00;98310.88;15308054;19;20019;-60
2024/03/14 02:21:13;;;;;;;3.97;3.58;;;;;;;9.16;100.00;98318.63;15316882;19;20018;-61
2024/03/14 02:26:44;;;;;;;4.13;3.72;;;;;;;9.16;100.00;98317.81;15293054;19;20368;-61
2024/03/14 02:32:09;;;;;;;4.30;3.90;;;;;;;9.15;100.00;98308.88;15294480;19;20354;-61
2024/03/14 02:37:34;;;;;;;4.40;4.00;;;;;;;9.15;100.00;98311.56;15282372;19;20018;-53
2024/03/14 02:43:01;;;;;;;4.20;3.80;;;;;;;9.15;100.00;98319.63;15283076;19;20628;-52
2024/03/14 02:48:26;;;;;;;4.53;3.65;;;;;;;9.14;100.00;98317.09;15301383;19;20018;-55
2024/03/14 02:53:50;;;;;;;4.15;3.78;;;;;;;9.14;100.00;98312.56;15291912;19;20018;-53
2024/03/14 02:59:18;;;;;;;3.97;3.67;;;;;;;9.14;100.00;98317.94;15296453;19;20363;-56
2024/03/14 03:04:44;;;;;;;4.18;3.78;;;;;;;9.12;100.00;98314.56;15298055;19;20026;-53
2024/03/14 03:10:11;;;;;;;4.30;3.90;;;;;;;9.14;100.00;98317.09;15288183;19;20049;-52
2024/03/14 03:15:38;;;;;;;4.45;4.05;;;;;;;9.12;100.00;98311.88;15287304;19;20025;-53
2024/03/14 03:21:04;;;;;;;4.72;4.25;;;;;;;9.10;100.00;98316.56;15288705;19;20015;-53
2024/03/14 03:26:28;;;;;;;4.40;4.00;;;;;;;9.12;100.00;98319.09;15290952;19;20015;-54
2024/03/14 03:31:57;;;;;;;4.85;4.45;;;;;;;9.10;100.00;98330.00;15287109;19;20025;-56
2024/03/14 03:37:21;;;;;;;4.38;3.97;;;;;;;9.08;100.00;98351.66;15286590;19;20632;-54
2024/03/14 03:42:47;;;;;;;4.60;4.20;;;;;;;9.06;100.00;98372.44;15292443;19;20017;-53
2024/03/14 03:48:15;;;;;;;4.55;4.15;;;;;;;9.07;100.00;98387.56;15295032;19;20029;-57
2024/03/14 03:53:40;;;;;;;4.78;4.38;;;;;;;9.05;100.00;98391.44;15295660;19;20166;-55
2024/03/14 03:59:07;;;;;;;4.70;4.30;;;;;;;9.04;100.00;98404.03;15296378;19;20029;-56
2024/03/14 04:04:36;;;;;;;4.70;4.30;;;;;;;9.04;100.00;98408.53;15298472;19;20070;-54
2024/03/14 04:10:00;;;;;;;4.68;4.28;;;;;;;9.04;100.00;98408.53;15295332;19;20010;-55
2024/03/14 04:15:25;;;;;;;4.82;4.43;;;;;;;9.01;100.00;98408.84;15292496;19;20420;-55
2024/03/14 04:20:52;;;;;;;4.72;4.32;;;;;;;9.01;100.00;98417.75;15297425;19;20011;-57
2024/03/14 04:26:17;;;;;;;5.00;4.60;;;;;;;9.01;100.00;98420.44;15293119;19;20092;-55
2024/03/14 04:31:41;;;;;;;4.60;4.15;;;;;;;9.01;100.00;98430.34;15299550;19;20024;-53
2024/03/14 04:37:12;;;;;;;4.70;4.30;;;;;;;9.03;100.00;98428.34;15290848;19;20013;-57
2024/03/14 04:42:43;;;;;;;4.47;4.07;;;;;;;9.03;100.00;98433.72;15292302;19;20033;-54
2024/03/14 04:48:09;;;;;;;4.50;4.10;;;;;;;9.05;100.00;98448.72;15294323;19;20037;-55
2024/03/14 04:53:36;;;;;;;4.50;4.10;;;;;;;9.05;100.00;98447.84;15293006;19;20070;-56
2024/03/14 04:59:02;;;;;;;4.40;4.00;;;;;;;9.06;100.00;98455.75;15292770;19;20106;-55
2024/03/14 05:04:26;;;;;;;4.97;4.40;;;;;;;9.08;100.00;98469.06;15291912;19;20014;-57
2024/03/14 05:10:00;;;;;;;5.72;5.10;;;;;;;9.07;100.00;98467.38;15292741;19;20013;-53
2024/03/14 05:15:26;;;;;;;5.65;5.05;;;;;;;9.09;100.00;98470.75;15288227;19;20021;-58
2024/03/14 05:20:50;;;;;;;5.50;4.57;;;;;;;9.09;100.00;98476.13;15292905;19;20881;-56
2024/03/14 05:26:18;;;;;;;5.82;5.20;;;;;;;9.09;100.00;98479.66;15296327;19;20439;-54
2024/03/14 05:31:44;;;;;;;5.97;5.38;;;;;;;9.09;100.00;98481.50;15290946;19;20845;-56
2024/03/14 05:37:09;;;;;;;5.43;4.93;;;;;;;9.12;100.00;98475.81;15293865;19;20094;-54
2024/03/14 05:42:43;;;;;;;4.85;4.25;;;;;;;9.12;100.00;98473.13;15010565;19;5002507;-55
2024/03/14 05:48:11;;;;;;;4.85;4.45;;;;;;;9.12;100.00;98478.50;15288225;19;20003;-54
2024/03/14 05:53:35;;;;;;;5.10;4.57;;;;;;;9.13;100.00;98482.88;15289400;19;20081;-57
2024/03/14 05:59:03;;;;;;;4.85;4.40;;;;;;;9.12;100.00;98481.19;15295133;19;20010;-54
2024/03/14 06:04:27;;;;;;;6.55;4.30;;;;;;;9.15;100.00;98482.75;15301571;19;20021;-56
2024/03/14 06:09:52;;;;;;;4.88;4.15;;;;;;;9.18;100.00;98491.34;15304197;19;20019;-55
2024/03/14 06:15:20;;;;;;;4.35;3.95;;;;;;;9.21;100.00;98496.44;15045715;19;5001841;-56
2024/03/14 06:20:45;;;;;;;5.75;4.32;;;;;;;9.22;100.00;98492.75;15299380;19;20066;-56
2024/03/14 06:26:09;;;;;;;4.47;4.07;;;;;;;9.27;100.00;98507.56;15300428;19;20086;-57
2024/03/14 06:31:37;;;;;;;4.70;3.90;;;;;;;9.31;100.00;98511.66;15305854;19;20014;-55
2024/03/14 06:37:01;;;;;;;5.38;3.70;;;;;;;9.35;100.00;98510.38;15298614;19;20025;-57
2024/03/14 06:42:32;;;;;;;5.18;3.53;;;;;;;9.41;100.00;98517.81;15305091;19;20368;-57
2024/03/14 06:48:01;;;;;;;5.60;3.17;;;;;;;9.45;100.00;98511.16;15303877;19;20070;-54
2024/03/14 06:53:25;;;;;;;3.67;3.25;;;;;;;9.52;100.00;98512.22;15296238;19;20018;-54
2024/03/14 06:58:50;;;;;;;3.33;3.00;;;;;;;9.63;100.00;98521.06;15298689;19;20007;-55
2024/03/14 07:04:18;;;;;;;4.38;3.22;;;;;;;9.68;100.00;98513.38;15297374;19;20074;-56
2024/03/14 07:09:43;;;;;;;3.47;3.03;;;;;;;9.78;100.00;98519.53;15300136;19;20027;-56
2024/03/14 07:15:08;;;;;;;3.08;2.78;;;;;;;9.93;100.00;98535.16;15298271;19;20007;-57
2024/03/14 07:20:37;;;;;;;3.15;2.83;;;;;;;10.04;100.00;98529.53;15301201;19;20022;-57
2024/03/14 07:26:02;;;;;;;2.78;2.50;;;;;;;10.11;100.00;98538.66;15295332;19;20425;-56
2024/03/14 07:31:28;;;;;;;3.47;2.83;;;;;;;10.25;100.00;98537.25;15301735;19;20853;-56
2024/03/14 07:36:56;;;;;;;2.88;2.60;;;;;;;10.35;100.00;98542.53;15295025;19;20022;-56
2024/03/14 07:42:29;;;;;;;2.90;2.50;;;;;;;10.46;100.00;98550.41;15301433;19;20038;-57
2024/03/14 07:47:54;;;;;;;2.88;2.58;;;;;;;10.52;100.00;98548.91;15302927;19;20466;-56
2024/03/14 07:53:25;;;;;;;2.53;2.33;;;;;;;10.53;100.00;98558.69;15294827;19;20014;-55
2024/03/14 07:58:51;;;;;;;2.58;2.38;;;;;;;10.51;100.00;98555.31;15291323;19;20011;-58
2024/03/14 08:04:22;;;;;;;3.20;2.40;;;;;;;10.59;100.00;98565.31;15293996;19;20014;-57
2024/03/14 08:09:51;;;;;;;4.23;2.43;;;;;;;10.67;100.00;98573.44;15297937;19;20414;-54
2024/03/14 08:15:30;;;;;;;2.42;2.03;;;;;;;10.75;100.00;98570.81;15292694;19;20364;-58
2024/03/14 08:20:57;;;;;;;2.40;2.20;;;;;;;10.79;100.00;98585.63;15296011;19;20014;-58
2024/03/14 08:26:25;;;;;;;2.53;2.10;;;;;;;10.88;100.00;98574.91;15294897;19;20085;-58
2024/03/14 08:31:51;;;;;;;1.92;1.75;;;;;;;10.95;100.00;98581.38;15294845;19;20021;-57
2024/03/14 08:37:15;;;;;;;1.85;1.73;;;;;;;10.99;100.00;98576.50;15291130;19;20011;-55
2024/03/14 08:42:49;;;;;;;1.70;1.60;;;;;;;11.10;100.00;98578.91;15284999;19;20084;-56
2024/03/14 08:48:14;;;;;;;1.77;1.40;;;;;;;11.18;100.00;98580.81;15292239;19;20021;-55
2024/03/14 08:54:07;;;;;;;1.63;1.40;;;;;;;11.32;100.00;98590.13;15284337;19;20406;-58
2024/03/14 08:59:28;;;;;;;1.60;1.50;;;;;;;11.49;100.00;98573.00;15288281;19;20037;-57
2024/03/14 09:04:53;;;;;;;1.73;1.40;;;;;;;11.61;100.00;98564.63;15289156;19;20086;-56
2024/03/14 09:10:23;;;;;;;2.20;1.40;;;;;;;11.65;100.00;98563.25;15283053;19;20015;-53
2024/03/14 09:15:51;;;;;;;2.15;1.80;;;;;;;11.68;100.00;98561.09;15287498;19;20010;-55
2024/03/14 09:21:16;;;;;;;1.42;1.33;;;;;;;11.79;100.00;98562.63;15288997;19;20018;-57
2024/03/14 09:26:42;;;;;;;3.05;1.90;;;;;;;11.82;100.00;98566.84;15283904;19;20017;-55
2024/03/14 09:32:10;;;;;;;2.13;1.52;;;;;;;11.90;100.00;98557.91;15288176;19;20090;-58
2024/03/14 09:37:34;;;;;;;1.95;1.75;;;;;;;11.97;100.00;98559.78;15300413;19;20025;-57
2024/03/14 09:43:07;;;;;;;1.42;1.25;;;;;;;12.07;100.00;98558.81;15293266;19;20082;-57
2024/03/14 09:48:35;;;;;;;1.50;1.40;;;;;;;12.08;100.00;98549.69;15303945;19;20082;-55
2024/03/14 09:54:02;;;;;;;1.50;1.40;;;;;;;12.12;100.00;98551.06;15296790;19;20014;-57
2024/03/14 09:59:27;;;;;;;1.50;1.40;;;;;;;12.17;100.00;98546.84;15297242;19;20015;-56
2024/03/14 10:04:55;;;;;;;1.65;1.40;;;;;;;12.29;100.00;98550.03;15040030;19;5002212;-59
2024/03/14 10:10:21;;;;;;;1.58;1.48;;;;;;;12.43;100.00;98537.72;15300610;19;20015;-59
2024/03/14 10:15:49;;;;;;;1.33;1.23;;;;;;;12.56;100.00;98536.34;15295977;19;20025;-57
2024/03/14 10:21:17;;;;;;;1.30;1.20;;;;;;;12.62;100.00;98523.00;15300060;19;20474;-57
2024/03/14 10:26:42;;;;;;;1.60;1.20;;;;;;;12.62;100.00;98528.41;15296315;19;20018;-58
2024/03/14 10:32:12;;;;;;;1.30;1.20;;;;;;;12.57;100.00;98514.56;15295500;19;20495;-56
2024/03/14 10:37:40;;;;;;;1.30;1.20;;;;;;;12.64;100.00;98510.13;15291930;19;20019;-58
2024/03/14 10:43:13;;;;;;;2.42;1.10;;;;;;;12.81;100.00;98503.88;15285662;19;20025;-58
2024/03/14 10:48:39;;;;;;;1.38;1.27;;;;;;;12.91;100.00;98491.81;15295794;19;20021;-58
2024/03/14 10:54:07;;;;;;;1.60;1.48;;;;;;;12.97;100.00;98473.22;15294789;19;20094;-58
2024/03/14 10:59:36;;;;;;;1.42;1.33;;;;;;;13.03;100.00;98469.78;15295998;19;20078;-58
2024/03/14 11:05:01;;;;;;;2.25;1.95;;;;;;;13.10;100.00;98462.69;15291575;19;20024;-55
2024/03/14 11:10:31;;;;;;;1.33;1.13;;;;;;;13.16;100.00;98451.13;15035843;19;5001203;-59
2024/03/14 11:15:58;;;;;;;2.35;1.13;;;;;;;13.28;100.00;98450.72;15293141;19;20485;-55
2024/03/14 11:21:31;;;;;;;1.33;1.00;;;;;;;13.38;100.00;98430.56;15297163;19;20077;-55
2024/03/14 11:27:01;;;;;;;2.35;1.00;;;;;;;13.45;100.00;98425.31;15293538;19;20014;-55
2024/03/14 11:32:31;;;;;;;1.25;1.00;;;;;;;13.65;100.00;98414.81;15291174;19;20025;-55
2024/03/14 11:37:58;;;;;;;1.10;1.00;;;;;;;13.85;100.00;98412.44;15291709;19;20014;-56
2024/03/14 11:43:34;;;;;;;1.55;1.05;;;;;;;13.99;100.00;98381.00;15287274;19;20018;-57
2024/03/14 11:48:59;;;;;;;0.90;0.90;;;;;;;14.06;100.00;98381.09;15292056;19;20014;-56
2024/03/14 11:54:24;;;;;;;0.95;0.95;;;;;;;13.97;100.00;98383.06;15290096;19;20105;-57
2024/03/14 11:59:51;;;;;;;1.00;0.90;;;;;;;13.86;100.00;98376.22;15293926;19;20085;-56
2024/03/14 12:05:28;;;;;;;1.42;1.20;;;;;;;13.84;100.00;98366.59;15289561;19;20019;-57
2024/03/14 12:10:55;;;;;;;1.40;1.30;;;;;;;13.82;100.00;98347.81;15294026;19;20038;-59
2024/03/14 12:16:23;;;;;;;2.15;1.30;;;;;;;13.75;100.00;98352.28;15287857;19;20341;-57
2024/03/14 12:22:00;;;;;;;1.38;1.27;;;;;;;13.63;100.00;98337.53;15294371;19;20018;-57
2024/03/14 12:27:25;;;;;;;1.40;1.30;;;;;;;13.53;100.00;98338.63;15289879;19;20033;-57
2024/03/14 12:33:01;;;;;;;2.40;1.38;;;;;;;13.44;100.00;98328.03;15287530;19;20035;-55
2024/03/14 12:38:32;;;;;;;1.23;1.13;;;;;;;13.36;100.00;98324.34;15288333;19;20014;-56
2024/03/14 12:43:57;;;;;;;1.52;1.40;;;;;;;13.34;100.00;98322.88;15287228;19;20483;-55
2024/03/14 12:49:25;;;;;;;1.50;1.40;;;;;;;13.25;100.00;98311.25;15285212;19;20014;-56
2024/03/14 12:54:49;;;;;;;3.40;1.80;;;;;;;13.14;100.00;98296.28;15286304;19;20025;-56
2024/03/14 13:00:20;;;;;;;2.08;1.73;;;;;;;12.99;100.00;98292.69;15291078;19;20026;-56
2024/03/14 13:05:51;;;;;;;1.85;1.70;;;;;;;12.91;100.00;98282.78;15285343;19;20090;-57
2024/03/14 13:11:20;;;;;;;2.75;1.80;;;;;;;12.93;100.00;98267.22;15289940;19;20485;-56
2024/03/14 13:16:45;;;;;;;1.95;1.75;;;;;;;12.99;100.00;98260.25;15284657;19;20014;-58
2024/03/14 13:22:13;;;;;;;2.10;1.90;;;;;;;13.07;100.00;98260.19;15287186;19;20014;-55
2024/03/14 13:27:40;;;;;;;2.63;1.95;;;;;;;13.36;100.00;98239.63;15287001;19;20078;-56
2024/03/14 13:33:09;;;;;;;3.88;1.90;;;;;;;13.58;100.00;98224.38;15283780;19;20410;-58
2024/03/14 13:38:41;;;;;;;3.58;2.00;;;;;;;13.81;100.00;98215.34;15284270;19;20751;-59
2024/03/14 13:44:06;;;;;;;4.80;2.40;;;;;;;13.97;100.00;98225.13;15283146;19;20212;-57
2024/03/14 13:49:37;;;;;;;2.38;2.10;;;;;;;14.08;100.00;98202.97;15285491;19;20424;-56
2024/03/14 13:55:16;;;;;;;2.83;1.90;;;;;;;14.22;100.00;98200.44;15287023;19;20078;-55
2024/03/14 14:00:50;;;;;;;2.03;1.80;;;;;;;14.23;100.00;98194.81;15287630;19;20014;-57
2024/03/14 14:06:16;;;;;;;1.98;1.80;;;;;;;14.32;100.00;98192.84;15283640;19;20015;-55
2024/03/14 14:11:44;;;;;;;2.33;1.75;;;;;;;14.41;100.00;98175.41;15287455;19;20019;-55
2024/03/14 14:17:09;;;;;;;1.73;1.60;;;;;;;14.36;100.00;98186.00;15281957;19;20010;-55
2024/03/14 14:22:34;;;;;;;1.60;1.45;;;;;;;14.54;100.00;98165.75;15295936;19;20011;-56
2024/03/14 14:28:02;;;;;;;2.35;1.55;;;;;;;14.68;100.00;98153.22;15301284;19;20029;-55
2024/03/14 14:33:27;;;;;;;1.50;1.40;;;;;;;14.76;100.00;98142.22;15295387;19;20014;-57
2024/03/14 14:38:46;;;;;;;2.55;1.67;;;;;;;14.97;100.00;98132.38;15296305;19;20791;-54
2024/03/14 14:44:21;;;;;;;2.33;1.42;;;;;;;15.14;100.00;98122.91;15300970;19;20025;-54
2024/03/14 14:49:46;;;;;;;1.73;1.52;;;;;;;15.22;100.00;98117.31;15300965;19;20355;-53
2024/03/14 14:55:12;;;;;;;2.47;1.50;;;;;;;15.43;100.00;98110.13;15293253;19;20486;-59
2024/03/14 15:00:40;;;;;;;1.40;1.23;;;;;;;15.80;100.00;98089.00;15298813;19;20024;-51
2024/03/14 15:06:05;;;;;;;1.30;1.20;;;;;;;16.02;100.00;98078.03;15293765;19;20500;-53
2024/03/14 15:11:31;;;;;;;1.48;1.20;;;;;;;16.19;100.00;98075.75;15297860;19;20024;-54
2024/03/14 15:16:59;;;;;;;1.15;1.00;;;;;;;16.28;100.00;98062.81;15293695;19;20619;-52
2024/03/14 15:22:23;;;;;;;1.77;1.27;;;;;;;16.23;100.00;98065.34;15293427;19;20015;-56
2024/03/14 15:27:48;;;;;;;3.65;1.52;;;;;;;16.11;100.00;98067.81;14776669;19;5002256;-58
2024/03/14 15:33:15;;;;;;;2.15;1.70;;;;;;;16.04;100.00;98061.53;15291103;19;20020;-56
2024/03/14 15:38:42;;;;;;;1.63;1.17;;;;;;;16.05;100.00;98060.50;15291541;19;20082;-53
2024/03/14 15:44:14;;;;;;;1.45;0.98;;;;;;;16.28;100.00;98047.38;15291256;19;20548;-55
2024/03/14 15:49:42;;;;;;;1.10;0.93;;;;;;;16.59;100.00;98045.91;15298583;19;20046;-55
2024/03/14 15:55:08;;;;;;;1.10;1.00;;;;;;;16.65;100.00;98041.50;15290380;19;20018;-56
2024/03/14 16:00:30;;;;;;;2.90;0.90;;;;;;;16.57;100.00;98044.44;15288805;19;20439;-52
2024/03/14 16:05:58;;;;;;;0.90;0.70;;;;;;;16.50;100.00;98039.00;15296218;19;20019;-54
2024/03/14 16:11:23;;;;;;;2.13;1.30;;;;;;;16.52;100.00;98036.91;15291325;19;20016;-51
2024/03/14 16:16:47;;;;;;;1.30;1.08;;;;;;;16.67;100.00;98033.97;15296936;19;20571;-51
2024/03/14 16:22:15;;;;;;;1.15;1.00;;;;;;;16.49;100.00;98026.44;15284138;19;20014;-56
2024/03/14 16:27:40;;;;;;;1.20;1.10;;;;;;;16.30;100.00;98026.22;15289972;19;20480;-53
2024/03/14 16:33:05;;;;;;;1.50;1.15;;;;;;;16.00;100.00;98034.78;15289374;19;20018;-56
2024/03/14 16:38:33;;;;;;;1.30;1.08;;;;;;;15.74;100.00;98019.22;15267596;19;20035;-56
2024/03/14 16:44:05;;;;;;;2.30;1.30;;;;;;;15.48;100.00;98014.50;15286745;19;20464;-55
2024/03/14 16:49:31;;;;;;;1.25;1.15;;;;;;;15.21;100.00;98017.13;15290109;19;20035;-51
2024/03/14 16:54:58;;;;;;;1.40;1.30;;;;;;;14.99;100.00;98017.22;15291703;19;20013;-51
2024/03/14 17:00:23;;;;;;;1.75;1.60;;;;;;;14.77;100.00;98017.28;15290172;19;20205;-51
2024/03/14 17:05:48;;;;;;;2.95;1.83;;;;;;;14.55;100.00;98016.47;15278138;19;20022;-54
2024/03/14 17:11:17;;;;;;;1.98;1.80;;;;;;;14.35;100.00;98015.50;15279554;19;20054;-53
2024/03/14 17:16:44;;;;;;;2.58;1.30;;;;;;;14.08;100.00;98005.25;15291090;19;20025;-54
2024/03/14 17:22:24;;;;;;;1.45;1.00;;;;;;;13.81;100.00;98005.00;15287034;19;20025;-53
2024/03/14 17:27:54;;;;;;;2.03;1.30;;;;;;;13.61;100.00;98001.22;15282198;19;20018;-54
2024/03/14 17:33:19;;;;;;;1.40;1.20;;;;;;;13.41;100.00;98004.53;15287218;19;20032;-52
2024/03/14 17:38:45;;;;;;;1.00;0.95;;;;;;;13.20;100.00;98008.84;15283506;19;20010;-53
2024/03/14 17:44:20;;;;;;;2.92;1.10;;;;;;;12.98;100.00;98002.50;15291646;19;20029;-55
2024/03/14 17:49:45;;;;;;;3.03;1.30;;;;;;;12.77;100.00;97998.69;15295083;19;20017;-57
2024/03/14 17:55:10;;;;;;;2.42;1.30;;;;;;;12.59;100.00;98007.16;15316548;19;20027;-54
2024/03/14 18:00:39;;;;;;;2.33;1.20;;;;;;;12.43;100.00;98001.91;15313007;19;20015;-54
2024/03/14 18:06:04;;;;;;;1.50;1.10;;;;;;;12.33;100.00;98016.50;15307719;19;20062;-58
2024/03/14 18:11:29;;;;;;;3.00;1.20;;;;;;;12.25;100.00;98011.19;15304204;19;20014;-55
2024/03/14 18:16:57;;;;;;;1.52;1.35;;;;;;;12.17;100.00;98016.69;15308878;19;20018;-57
2024/03/14 18:22:23;;;;;;;1.40;1.20;;;;;;;12.05;100.00;98024.34;15300566;19;20014;-55
2024/03/14 18:27:50;;;;;;;1.52;1.40;;;;;;;11.95;100.00;98038.06;15301109;19;20022;-56
2024/03/14 18:33:19;;;;;;;1.48;1.10;;;;;;;11.85;100.00;98026.66;15302001;19;20086;-53
2024/03/14 18:38:44;;;;;;;1.98;1.35;;;;;;;11.76;100.00;98033.94;15302714;19;20022;-52
2024/03/14 18:44:15;;;;;;;2.33;1.30;;;;;;;11.64;100.00;98025.44;15296100;19;20021;-54
2024/03/14 18:49:44;;;;;;;1.50;1.40;;;;;;;11.47;100.00;98026.53;15295428;19;20019;-56
2024/03/14 18:55:09;;;;;;;2.70;1.23;;;;;;;11.37;100.00;98024.91;15295792;19;20019;-54
2024/03/14 19:00:34;;;;;;;2.03;1.40;;;;;;;11.20;100.00;98026.00;15294435;19;20021;-55
2024/03/14 19:06:02;;;;;;;2.05;1.45;;;;;;;11.07;100.00;98019.31;15299874;19;20010;-54
2024/03/14 19:11:28;;;;;;;1.95;1.60;;;;;;;10.97;100.00;98034.00;15296169;19;20022;-56
2024/03/14 19:16:53;;;;;;;3.13;2.00;;;;;;;10.85;100.00;98025.47;15294181;19;20642;-56
2024/03/14 19:22:21;;;;;;;1.90;1.67;;;;;;;10.72;100.00;98037.63;15293919;19;20407;-56
2024/03/14 19:27:49;;;;;;;2.58;1.83;;;;;;;10.67;100.00;98039.97;15290450;19;20038;-56
2024/03/14 19:33:14;;;;;;;1.90;1.60;;;;;;;10.61;100.00;98035.28;15290091;19;20082;-56
2024/03/14 19:38:41;;;;;;;2.05;1.55;;;;;;;10.55;100.00;98031.41;15301099;19;20021;-55
2024/03/14 19:44:12;;;;;;;3.17;1.80;;;;;;;10.50;100.00;98035.63;15293264;19;20474;-58
2024/03/14 19:49:37;;;;;;;2.33;2.00;;;;;;;10.42;100.00;98031.94;15288676;19;20040;-58
2024/03/14 19:55:05;;;;;;;2.42;2.00;;;;;;;10.32;100.00;98021.31;15299574;19;20038;-59
2024/03/14 20:00:30;;;;;;;4.45;2.10;;;;;;;10.20;100.00;98013.75;15294886;19;20034;-58
2024/03/14 20:05:54;;;;;;;2.92;2.42;;;;;;;10.05;100.00;98025.19;15298483;19;20014;-59
2024/03/14 20:11:21;;;;;;;3.03;2.00;;;;;;;9.95;100.00;98024.50;15294913;19;20023;-59
2024/03/14 20:16:46;;;;;;;1.98;1.70;;;;;;;9.96;100.00;98016.28;15294524;19;20011;-56
2024/03/14 20:22:12;;;;;;;2.28;2.05;;;;;;;9.99;100.00;98018.63;15289594;19;20014;-57
2024/03/14 20:27:40;;;;;;;2.83;2.10;;;;;;;10.04;100.00;98012.75;15294750;19;20024;-58
2024/03/14 20:33:06;;;;;;;2.88;2.40;;;;;;;9.93;100.00;98010.41;15293466;19;20040;-57
2024/03/14 20:38:31;;;;;;;3.85;2.60;;;;;;;9.75;100.00;97999.78;15293584;19;20018;-56
2024/03/14 20:44:07;;;;;;;2.72;2.38;;;;;;;9.60;100.00;98010.31;15289176;19;20007;-57
2024/03/14 20:49:33;;;;;;;2.90;2.60;;;;;;;9.49;100.00;98009.63;15286668;19;20019;-54
2024/03/14 20:55:08;;;;;;;3.25;2.70;;;;;;;9.43;100.00;98004.94;15290273;19;20018;-54
2024/03/14 21:00:39;;;;;;;3.08;2.78;;;;;;;9.34;100.00;97998.69;15291452;19;20398;-54
2024/03/14 21:06:04;;;;;;;3.10;2.60;;;;;;;9.20;100.00;98005.53;15288951;19;20021;-55
2024/03/14 21:11:30;;;;;;;4.47;2.65;;;;;;;9.18;100.00;98004.84;15289124;19;20077;-56
2024/03/14 21:16:58;;;;;;;3.00;2.80;;;;;;;9.15;100.00;97997.13;15292426;19;20020;-56
2024/03/14 21:22:24;;;;;;;3.60;3.13;;;;;;;9.09;100.00;98005.84;15281393;19;20131;-55
2024/03/14 21:27:49;;;;;;;3.40;2.95;;;;;;;9.05;100.00;98007.16;15286802;19;20074;-53
2024/03/14 21:33:18;;;;;;;3.55;2.97;;;;;;;8.98;100.00;98004.28;15306374;19;20050;-55
2024/03/14 21:38:44;;;;;;;3.28;2.97;;;;;;;8.98;100.00;98006.13;15300274;19;20094;-56
2024/03/14 21:44:17;;;;;;;4.50;3.20;;;;;;;9.01;100.00;98008.47;15299884;19;20660;-57
2024/03/14 21:49:45;;;;;;;4.50;3.30;;;;;;;9.01;100.00;98009.31;15300496;19;20029;-57
2024/03/14 21:55:10;;;;;;;3.55;3.25;;;;;;;9.02;100.00;98016.38;15295187;19;20693;-55
2024/03/14 22:00:36;;;;;;;4.15;3.47;;;;;;;9.05;100.00;98017.91;15300068;19;20025;-55
2024/03/14 22:06:04;;;;;;;3.78;3.38;;;;;;;8.99;100.00;98018.56;15295699;19;20011;-55
2024/03/14 22:11:29;;;;;;;4.13;3.40;;;;;;;8.81;100.00;98006.03;15300516;19;20045;-53
2024/03/14 22:16:53;;;;;;;4.10;3.60;;;;;;;8.70;100.00;98006.31;15300300;19;20019;-54
2024/03/14 22:22:21;;;;;;;4.53;3.60;;;;;;;8.68;100.00;98009.19;15297136;19;20014;-55
2024/03/14 22:27:46;;;;;;;5.28;4.13;;;;;;;8.75;100.00;98012.06;15294475;19;20018;-54
2024/03/14 22:33:11;;;;;;;4.60;3.92;;;;;;;8.77;100.00;98005.53;15295231;19;20021;-55
2024/03/14 22:38:38;;;;;;;5.07;4.03;;;;;;;8.79;100.00;98002.66;15301039;19;20024;-53
2024/03/14 22:44:11;;;;;;;5.70;4.40;;;;;;;8.79;100.00;98008.03;15296400;19;20030;-56
2024/03/14 22:49:36;;;;;;;6.68;4.38;;;;;;;8.82;100.00;98005.03;15296092;19;20621;-56
2024/03/14 22:55:03;;;;;;;6.30;4.30;;;;;;;8.82;100.00;98001.53;15295979;19;20029;-55
2024/03/14 23:00:36;;;;;;;5.60;4.63;;;;;;;8.85;100.00;98001.19;15291384;19;20014;-57
2024/03/14 23:06:01;;;;;;;6.82;4.78;;;;;;;8.94;100.00;98006.44;15299393;19;20024;-55
2024/03/14 23:11:28;;;;;;;4.70;4.20;;;;;;;8.94;100.00;98011.81;15297232;19;20448;-54
2024/03/14 23:16:53;;;;;;;6.30;5.00;;;;;;;8.82;100.00;97996.97;15292061;19;20347;-56
2024/03/14 23:22:19;;;;;;;6.22;4.93;;;;;;;8.83;100.00;98000.50;15292047;19;20471;-57
2024/03/14 23:27:46;;;;;;;5.85;4.97;;;;;;;8.80;100.00;97993.59;15301275;19;20018;-53
2024/03/14 23:33:13;;;;;;;7.75;6.00;;;;;;;8.77;100.00;98000.16;15292173;19;20112;-54
2024/03/14 23:38:38;;;;;;;9.05;6.45;;;;;;;8.77;100.00;98001.97;15293222;19;20018;-54
2024/03/14 23:44:12;;;;;;;7.70;5.72;;;;;;;8.75;100.00;97998.63;15292983;19;20085;-55
2024/03/14 23:49:38;;;;;;;8.57;6.05;;;;;;;8.73;100.00;98000.63;15293313;19;20094;-56
2024/03/14 23:55:04;;;;;;;8.90;6.80;;;;;;;8.71;100.00;97995.41;15290237;19;20353;-54
